createdAt,value
2023-01-10T00:02:30.080Z,9.25
2023-01-10T00:05:16.120Z,9.13
2023-01-10T00:08:02.162Z,9.65
2023-01-10T00:10:48.323Z,10.50
2023-01-10T00:13:33.653Z,9.95
2023-01-10T00:16:19.143Z,10.80
2023-01-10T00:19:05.506Z,13.80
2023-01-10T00:21:50.674Z,9.52
2023-01-10T00:24:36.278Z,15.48
2023-01-10T00:27:24.369Z,10.48
2023-01-10T00:30:14.272Z,10.95
2023-01-10T00:32:59.679Z,13.68
2023-01-10T00:35:45.434Z,10.27
2023-01-10T00:38:33.945Z,10.90
2023-01-10T00:41:38.115Z,13.00
2023-01-10T00:44:23.593Z,14.25
2023-01-10T00:47:08.890Z,11.38
2023-01-10T00:49:54.319Z,9.00
2023-01-10T00:52:39.725Z,9.35
2023-01-10T00:55:25.090Z,12.40
2023-01-10T00:58:11.782Z,13.35
2023-01-10T01:00:57.398Z,14.00
2023-01-10T01:03:42.933Z,11.35
2023-01-10T01:06:28.452Z,10.93
2023-01-10T01:09:14.666Z,8.07
2023-01-10T01:11:59.806Z,7.68
2023-01-10T01:14:45.216Z,7.80
2023-01-10T01:17:30.645Z,9.23
2023-01-10T01:20:18.292Z,7.38
2023-01-10T01:23:03.616Z,9.23
2023-01-10T01:25:53.800Z,8.18
2023-01-10T01:28:39.313Z,6.28
2023-01-10T01:31:24.791Z,10.95
2023-01-10T01:34:10.211Z,9.50
2023-01-10T01:36:57.097Z,6.95
2023-01-10T01:39:42.195Z,10.15
2023-01-10T01:42:35.690Z,7.82
2023-01-10T01:45:38.775Z,15.45
2023-01-10T01:48:41.360Z,10.68
2023-01-10T01:51:30.589Z,9.98
2023-01-10T01:54:18.464Z,11.40
2023-01-10T01:57:09.665Z,16.55
2023-01-10T01:59:55.812Z,11.73
2023-01-10T02:03:02.164Z,12.25
2023-01-10T02:05:48.452Z,9.48
2023-01-10T02:08:34.731Z,17.25
2023-01-10T02:11:20.257Z,12.48
2023-01-10T02:14:06.933Z,13.02
2023-01-10T02:16:52.681Z,10.63
2023-01-10T02:19:54.208Z,12.68
2023-01-10T02:23:26.758Z,14.88
2023-01-10T02:26:17.945Z,15.75
2023-01-10T02:29:27.343Z,15.20
2023-01-10T02:32:48.025Z,16.08
2023-01-10T02:41:57.630Z,18.42
2023-01-10T02:44:52.047Z,16.50
2023-01-10T02:47:39.529Z,16.70
2023-01-10T02:50:42.535Z,13.18
2023-01-10T02:56:57.770Z,8.95
2023-01-10T03:00:04.615Z,8.57
2023-01-10T03:03:12.914Z,12.20
2023-01-10T03:06:18.037Z,15.00
2023-01-10T03:09:21.628Z,11.85
2023-01-10T03:12:14.708Z,16.13
2023-01-10T03:17:51.730Z,14.48
2023-01-10T03:20:38.805Z,15.50
2023-01-10T03:23:24.755Z,11.20
2023-01-10T03:26:11.551Z,14.32
2023-01-10T03:29:04.614Z,9.88
2023-01-10T03:31:55.080Z,11.95
2023-01-10T03:34:40.914Z,12.38
2023-01-10T03:37:38.607Z,11.85
2023-01-10T03:40:43.137Z,15.63
2023-01-10T03:43:59.458Z,12.70
2023-01-10T03:47:06.035Z,10.38
2023-01-10T03:49:56.378Z,12.77
2023-01-10T03:52:42.716Z,12.32
2023-01-10T03:55:29.895Z,10.52
2023-01-10T03:58:17.394Z,15.10
2023-01-10T04:01:02.846Z,10.25
2023-01-10T04:03:48.329Z,12.15
2023-01-10T04:06:33.762Z,10.38
2023-01-10T04:09:19.202Z,12.32
2023-01-10T04:12:04.708Z,12.30
2023-01-10T04:14:50.120Z,19.55
2023-01-10T04:17:35.442Z,14.43
2023-01-10T04:20:20.949Z,13.45
2023-01-10T04:23:06.427Z,17.17
2023-01-10T04:25:51.815Z,15.02
2023-01-10T04:28:37.354Z,15.07
2023-01-10T04:31:23.442Z,14.45
2023-01-10T04:34:09.871Z,11.85
2023-01-10T04:36:55.056Z,14.43
2023-01-10T04:39:40.472Z,18.02
2023-01-10T04:42:26.037Z,14.23
2023-01-10T04:45:13.468Z,10.95
2023-01-10T04:48:00.042Z,16.13
2023-01-10T04:50:52.886Z,13.90
2023-01-10T04:56:23.716Z,12.55
2023-01-10T04:59:10.401Z,12.85
2023-01-10T05:01:57.361Z,12.13
2023-01-10T05:04:43.018Z,11.00
2023-01-10T05:07:28.464Z,11.00
2023-01-10T05:10:13.994Z,13.27
2023-01-10T05:12:59.388Z,16.83
2023-01-10T05:15:44.897Z,9.88
2023-01-10T05:18:30.276Z,13.68
2023-01-10T05:21:16.024Z,11.95
2023-01-10T05:24:01.528Z,15.23
2023-01-10T05:26:46.866Z,11.32
2023-01-10T05:29:34.117Z,11.68
2023-01-10T05:32:19.274Z,16.73
2023-01-10T05:35:05.166Z,9.70
2023-01-10T05:37:50.409Z,10.85
2023-01-10T05:40:35.719Z,13.73
2023-01-10T05:43:21.212Z,13.20
2023-01-10T05:46:06.670Z,10.82
2023-01-10T05:48:53.211Z,11.77
2023-01-10T05:51:38.887Z,10.82
2023-01-10T05:54:23.962Z,11.95
2023-01-10T05:57:09.519Z,12.13
2023-01-10T05:59:54.990Z,11.15
2023-01-10T06:02:40.582Z,9.23
2023-01-10T06:05:26.068Z,10.77
2023-01-10T06:08:11.567Z,10.65
2023-01-10T06:10:57.062Z,16.20
2023-01-10T06:13:42.414Z,12.00
2023-01-10T06:16:28.047Z,13.70
2023-01-10T06:19:13.493Z,10.05
2023-01-10T06:21:59.235Z,11.68
2023-01-10T06:24:44.711Z,14.55
2023-01-10T06:27:29.881Z,10.98
2023-01-10T06:30:15.534Z,9.40
2023-01-10T06:33:05.777Z,11.10
2023-01-10T06:35:50.860Z,13.45
2023-01-10T06:38:36.274Z,8.90
2023-01-10T06:41:21.866Z,11.23
2023-01-10T06:44:07.254Z,13.48
2023-01-10T06:46:52.825Z,13.15
2023-01-10T06:49:38.219Z,8.20
2023-01-10T06:52:23.753Z,11.00
2023-01-10T06:55:09.674Z,6.45
2023-01-10T06:57:57.071Z,11.00
2023-01-10T07:00:42.632Z,10.15
2023-01-10T07:03:28.089Z,7.32
2023-01-10T07:06:13.639Z,10.90
2023-01-10T07:08:58.816Z,11.00
2023-01-10T07:11:44.378Z,12.23
2023-01-10T07:14:29.507Z,15.05
2023-01-10T07:17:14.830Z,15.00
2023-01-10T07:20:00.590Z,10.98
2023-01-10T07:22:57.403Z,14.73
2023-01-10T07:25:42.463Z,11.13
2023-01-10T07:28:27.801Z,10.65
2023-01-10T07:31:13.644Z,15.45
2023-01-10T07:33:59.325Z,10.18
2023-01-10T07:36:44.657Z,10.32
2023-01-10T07:39:30.005Z,9.73
2023-01-10T07:42:15.474Z,11.80
2023-01-10T07:45:00.811Z,11.85
2023-01-10T07:47:46.308Z,11.48
2023-01-10T07:50:34.409Z,12.77
2023-01-10T07:53:19.534Z,13.02
2023-01-10T07:56:05.627Z,12.95
2023-01-10T07:58:51.110Z,11.68
2023-01-10T08:01:36.591Z,8.82
2023-01-10T08:04:21.803Z,14.98
2023-01-10T08:07:07.314Z,10.30
2023-01-10T08:09:52.792Z,10.68
2023-01-10T08:12:38.295Z,7.80
2023-01-10T08:15:23.835Z,8.98
2023-01-10T08:18:09.175Z,8.52
2023-01-10T08:20:55.514Z,10.50
2023-01-10T08:23:41.004Z,10.55
2023-01-10T08:26:26.257Z,8.85
2023-01-10T08:29:11.681Z,9.23
2023-01-10T08:31:57.397Z,11.55
2023-01-10T08:34:42.560Z,7.35
2023-01-10T08:37:28.612Z,9.07
2023-01-10T08:40:14.012Z,7.45
2023-01-10T08:43:05.226Z,11.52
2023-01-10T08:45:50.784Z,15.65
2023-01-10T08:48:36.287Z,13.30
2023-01-10T08:51:21.769Z,10.30
2023-01-10T08:54:07.341Z,13.15
2023-01-10T08:56:52.860Z,10.70
2023-01-10T08:59:38.617Z,10.63
2023-01-10T09:02:24.067Z,12.88
2023-01-10T09:05:22.315Z,13.43
2023-01-10T09:08:11.967Z,13.43
2023-01-10T09:11:01.438Z,9.73
2023-01-10T09:13:50.510Z,14.68
2023-01-10T09:16:36.009Z,18.27
2023-01-10T09:19:21.553Z,11.82
2023-01-10T09:22:07.115Z,11.02
2023-01-10T09:24:52.716Z,15.27
2023-01-10T09:27:38.221Z,14.98
2023-01-10T09:30:23.794Z,14.45
2023-01-10T09:33:09.576Z,17.95
2023-01-10T09:35:58.176Z,14.32
2023-01-10T09:38:44.571Z,15.57
2023-01-10T09:41:51.414Z,12.90
2023-01-10T09:44:48.614Z,11.63
2023-01-10T09:47:54.155Z,9.93
2023-01-10T09:51:15.856Z,15.48
2023-01-10T09:54:12.237Z,12.05
2023-01-10T09:57:01.127Z,10.75
2023-01-10T09:59:50.958Z,12.00
2023-01-10T10:02:47.934Z,11.85
2023-01-10T10:05:33.493Z,13.88
2023-01-10T10:08:20.189Z,19.00
2023-01-10T10:11:25.509Z,14.00
2023-01-10T10:14:52.894Z,18.02
2023-01-10T10:18:04.159Z,15.43
2023-01-10T10:21:07.163Z,12.40
2023-01-10T10:24:17.517Z,16.70
2023-01-10T10:27:22.529Z,19.95
2023-01-10T10:30:42.619Z,17.63
2023-01-10T10:33:49.326Z,16.95
2023-01-10T10:36:46.256Z,15.43
2023-01-10T10:39:47.468Z,14.13
2023-01-10T10:42:37.117Z,13.85
2023-01-10T10:45:41.639Z,13.45
2023-01-10T10:48:33.708Z,16.08
2023-01-10T10:51:39.723Z,16.50
2023-01-10T10:54:24.742Z,17.42
2023-01-10T10:57:13.757Z,19.00
2023-01-10T11:00:01.495Z,18.60
2023-01-10T11:03:01.721Z,16.20
2023-01-10T11:05:48.240Z,12.07
2023-01-10T11:08:39.778Z,15.75
2023-01-10T11:11:34.065Z,17.70
2023-01-10T11:14:46.619Z,14.30
2023-01-10T11:17:34.430Z,14.15
2023-01-10T11:20:19.702Z,13.60
2023-01-10T11:23:05.582Z,16.67
2023-01-10T11:25:50.930Z,17.85
2023-01-10T11:28:37.196Z,21.92
2023-01-10T11:31:29.493Z,14.98
2023-01-10T11:34:30.010Z,13.38
2023-01-10T11:37:22.260Z,12.57
2023-01-10T11:40:25.292Z,16.08
2023-01-10T11:43:30.562Z,15.48
2023-01-10T11:46:21.027Z,17.00
2023-01-10T11:49:14.705Z,16.13
2023-01-10T11:52:04.829Z,16.65
2023-01-10T11:54:50.590Z,12.07
2023-01-10T11:57:36.450Z,12.10
2023-01-10T12:00:22.283Z,12.73
2023-01-10T12:03:23.442Z,13.05
2023-01-10T12:06:17.595Z,15.70
2023-01-10T12:09:03.357Z,15.82
2023-01-10T12:12:02.453Z,16.30
2023-01-10T12:14:48.260Z,15.88
2023-01-10T12:17:37.682Z,11.35
2023-01-10T12:20:25.352Z,14.15
2023-01-10T12:23:16.381Z,18.35
2023-01-10T12:26:11.449Z,12.63
2023-01-10T12:29:05.105Z,14.85
2023-01-10T12:31:53.833Z,11.35
2023-01-10T12:34:46.646Z,15.32
2023-01-10T12:37:46.303Z,16.17
2023-01-10T12:40:49.092Z,15.68
2023-01-10T12:43:57.794Z,18.00
2023-01-10T12:47:12.786Z,13.85
2023-01-10T12:50:10.881Z,14.75
2023-01-10T12:53:22.915Z,14.77
2023-01-10T12:56:14.265Z,12.73
2023-01-10T12:59:23.760Z,12.30
2023-01-10T13:02:21.789Z,16.73
2023-01-10T13:05:14.895Z,14.65
2023-01-10T13:08:06.366Z,11.90
2023-01-10T13:10:55.764Z,16.23
2023-01-10T13:13:43.470Z,14.00
2023-01-10T13:16:34.823Z,12.45
2023-01-10T13:19:24.688Z,11.05
2023-01-10T13:22:22.810Z,15.55
2023-01-10T13:25:34.848Z,12.82
2023-01-10T13:28:25.941Z,13.05
2023-01-10T13:31:32.605Z,14.57
2023-01-10T13:34:20.049Z,11.40
2023-01-10T13:37:13.369Z,16.58
2023-01-10T13:40:00.689Z,15.05
2023-01-10T13:43:04.738Z,14.30
2023-01-10T13:46:16.140Z,15.45
2023-01-10T13:49:03.364Z,14.88
2023-01-10T13:52:35.622Z,17.42
2023-01-10T13:55:38.758Z,14.05
2023-01-10T13:58:42.486Z,11.52
2023-01-10T14:01:54.549Z,15.02
2023-01-10T14:04:47.192Z,15.00
2023-01-10T14:07:49.936Z,16.83
2023-01-10T14:10:35.453Z,13.68
2023-01-10T14:13:22.819Z,13.80
2023-01-10T14:16:36.731Z,17.52
2023-01-10T14:19:32.637Z,15.52
2023-01-10T14:22:26.273Z,10.43
2023-01-10T14:25:19.778Z,14.90
2023-01-10T14:28:15.946Z,11.27
2023-01-10T14:31:13.387Z,14.50
2023-01-10T14:34:00.158Z,11.80
2023-01-10T14:37:15.873Z,16.08
2023-01-10T14:40:04.186Z,14.57
2023-01-10T14:42:50.944Z,14.00
2023-01-10T14:45:51.661Z,22.95
2023-01-10T14:48:46.337Z,15.77
2023-01-10T14:51:31.899Z,18.55
2023-01-10T14:54:21.774Z,16.85
2023-01-10T14:57:23.152Z,16.23
2023-01-10T15:00:18.744Z,16.60
2023-01-10T15:03:04.415Z,14.60
2023-01-10T15:05:56.582Z,16.90
2023-01-10T15:08:41.716Z,16.48
2023-01-10T15:11:30.373Z,17.67
2023-01-10T15:14:18.900Z,17.20
2023-01-10T15:17:06.235Z,17.42
2023-01-10T15:19:52.682Z,14.00
2023-01-10T15:22:38.129Z,19.33
2023-01-10T15:25:38.391Z,18.20
2023-01-10T15:28:23.768Z,15.27
2023-01-10T15:31:11.325Z,15.25
2023-01-10T15:33:58.040Z,16.48
2023-01-10T15:36:48.402Z,14.98
2023-01-10T15:39:37.436Z,15.13
2023-01-10T15:42:23.178Z,16.23
2023-01-10T15:45:37.410Z,18.52
2023-01-10T15:48:31.369Z,13.32
2023-01-10T15:51:22.409Z,10.55
2023-01-10T15:54:29.441Z,14.50
2023-01-10T15:57:27.884Z,12.40
2023-01-10T16:00:17.147Z,14.52
2023-01-10T16:03:12.965Z,15.35
2023-01-10T16:06:00.136Z,17.45
2023-01-10T16:08:50.275Z,12.57
2023-01-10T16:12:07.179Z,12.75
2023-01-10T16:14:52.494Z,11.27
2023-01-10T16:17:38.314Z,9.98
2023-01-10T16:20:31.391Z,14.60
2023-01-10T16:23:20.253Z,10.75
2023-01-10T16:26:09.075Z,10.15
2023-01-10T16:28:54.241Z,10.50
2023-01-10T16:31:40.061Z,10.15
2023-01-10T16:34:26.092Z,12.00
2023-01-10T16:37:11.405Z,7.90
2023-01-10T16:39:56.882Z,9.75
2023-01-10T16:43:00.994Z,8.27
2023-01-10T16:45:52.208Z,6.60
2023-01-10T16:48:37.763Z,6.30
2023-01-10T16:51:26.245Z,5.57
2023-01-10T16:54:16.625Z,8.82
2023-01-10T16:57:02.178Z,6.78
2023-01-10T16:59:47.770Z,7.88
2023-01-10T17:02:33.178Z,7.15
2023-01-10T17:05:18.752Z,7.53
2023-01-10T17:08:04.667Z,6.22
2023-01-10T17:10:56.393Z,4.68
2023-01-10T17:13:43.461Z,4.77
2023-01-10T17:16:29.048Z,5.03
2023-01-10T17:19:14.242Z,5.45
2023-01-10T17:22:00.479Z,3.97
2023-01-10T17:24:45.640Z,5.72
2023-01-10T17:27:31.359Z,6.30
2023-01-10T17:30:17.073Z,4.82
2023-01-10T17:33:02.595Z,5.07
2023-01-10T17:35:48.517Z,4.40
2023-01-10T17:38:33.956Z,6.22
2023-01-10T17:41:19.246Z,5.22
2023-01-10T17:44:05.080Z,5.25
2023-01-10T17:46:50.502Z,4.90
2023-01-10T17:49:36.419Z,7.55
2023-01-10T17:52:21.925Z,6.38
2023-01-10T17:55:07.831Z,6.60
2023-01-10T17:57:54.040Z,8.35
2023-01-10T18:00:39.301Z,7.95
2023-01-10T18:03:25.316Z,10.30
2023-01-10T18:06:22.858Z,10.70
2023-01-10T18:09:08.874Z,9.77
2023-01-10T18:11:54.481Z,13.27
2023-01-10T18:14:39.963Z,10.52
2023-01-10T18:17:25.810Z,12.38
2023-01-10T18:20:12.115Z,11.10
2023-01-10T18:23:17.531Z,13.07
2023-01-10T18:26:05.700Z,15.82
2023-01-10T18:28:52.899Z,12.07
2023-01-10T18:31:39.293Z,12.73
2023-01-10T18:34:25.028Z,13.35
2023-01-10T18:37:11.279Z,13.18
2023-01-10T18:39:57.261Z,13.25
2023-01-10T18:42:43.329Z,13.25
2023-01-10T18:45:30.827Z,13.60
2023-01-10T18:48:17.101Z,12.48
2023-01-10T18:51:04.719Z,14.52
2023-01-10T18:53:52.815Z,15.30
2023-01-10T18:56:38.261Z,13.05
2023-01-10T18:59:23.981Z,15.95
2023-01-10T19:02:14.589Z,14.25
2023-01-10T19:05:00.168Z,16.95
2023-01-10T19:07:45.866Z,18.00
2023-01-10T19:10:49.833Z,20.50
2023-01-10T19:13:37.306Z,18.77
2023-01-10T19:16:32.432Z,20.88
2023-01-10T19:19:18.070Z,24.67
2023-01-10T19:22:03.611Z,19.83
2023-01-10T19:24:49.405Z,19.80
2023-01-10T19:27:35.433Z,19.30
2023-01-10T19:30:21.161Z,19.52
2023-01-10T19:33:06.790Z,19.05
2023-01-10T19:35:52.451Z,20.35
2023-01-10T19:38:38.382Z,22.00
2023-01-10T19:41:25.465Z,18.80
2023-01-10T19:44:13.501Z,18.27
2023-01-10T19:46:59.265Z,22.73
2023-01-10T19:49:45.500Z,23.35
2023-01-10T19:52:31.322Z,24.23
2023-01-10T19:55:17.005Z,21.13
2023-01-10T19:58:03.444Z,19.40
2023-01-10T20:00:48.880Z,23.60
2023-01-10T20:03:34.654Z,27.42
2023-01-10T20:06:24.334Z,21.42
2023-01-10T20:09:12.837Z,20.33
2023-01-10T20:11:58.582Z,17.90
2023-01-10T20:14:43.973Z,19.20
2023-01-10T20:17:33.250Z,18.23
2023-01-10T20:20:20.604Z,16.70
2023-01-10T20:23:07.169Z,17.17
2023-01-10T20:25:57.053Z,16.35
2023-01-10T20:28:43.784Z,15.05
2023-01-10T20:31:30.470Z,16.27
2023-01-10T20:34:16.260Z,15.68
2023-01-10T20:37:02.027Z,16.48
2023-01-10T20:39:47.243Z,15.00
2023-01-10T20:42:33.187Z,17.63
2023-01-10T20:45:18.656Z,15.45
2023-01-10T20:48:04.372Z,14.48
2023-01-10T20:50:49.663Z,18.80
2023-01-10T20:53:35.047Z,18.55
2023-01-10T20:56:23.384Z,16.98
2023-01-10T20:59:08.822Z,19.40
2023-01-10T21:01:54.835Z,16.33
2023-01-10T21:04:40.601Z,19.20
2023-01-10T21:07:26.140Z,15.57
2023-01-10T21:10:11.655Z,14.75
2023-01-10T21:12:57.113Z,16.13
2023-01-10T21:15:44.203Z,16.05
2023-01-10T21:18:37.694Z,15.05
2023-01-10T21:21:23.184Z,14.95
2023-01-10T21:24:09.455Z,14.88
2023-01-10T21:26:54.826Z,15.93
2023-01-10T21:29:40.380Z,13.75
2023-01-10T21:32:25.992Z,12.07
2023-01-10T21:35:11.205Z,13.40
2023-01-10T21:37:57.519Z,15.98
2023-01-10T21:40:42.651Z,14.75
2023-01-10T21:43:30.903Z,15.48
2023-01-10T21:46:16.608Z,15.10
2023-01-10T21:49:03.509Z,13.52
2023-01-10T21:51:48.880Z,15.00
2023-01-10T21:54:34.468Z,16.42
2023-01-10T21:57:22.190Z,14.82
2023-01-10T22:00:08.209Z,14.68
2023-01-10T22:03:00.091Z,15.50
2023-01-10T22:05:45.531Z,14.88
2023-01-10T22:08:31.132Z,15.63
2023-01-10T22:11:16.773Z,16.30
2023-01-10T22:14:02.477Z,14.32
2023-01-10T22:16:47.731Z,12.82
2023-01-10T22:19:33.296Z,14.23
2023-01-10T22:22:18.901Z,15.55
2023-01-10T22:25:05.096Z,13.73
2023-01-10T22:27:50.575Z,14.10
2023-01-10T22:30:35.960Z,13.25
2023-01-10T22:33:22.545Z,14.98
2023-01-10T22:36:16.576Z,14.27
2023-01-10T22:39:01.940Z,16.33
2023-01-10T22:41:47.188Z,15.70
2023-01-10T22:44:32.643Z,16.50
2023-01-10T22:47:17.995Z,12.95
2023-01-10T22:50:03.577Z,14.38
2023-01-10T22:52:49.952Z,15.48
2023-01-10T22:55:35.455Z,12.30
2023-01-10T22:58:21.816Z,14.27
2023-01-10T23:01:08.034Z,11.63
2023-01-10T23:03:53.422Z,12.52
2023-01-10T23:06:38.833Z,15.13
2023-01-10T23:09:24.608Z,11.73
2023-01-10T23:12:09.705Z,12.35
2023-01-10T23:14:55.221Z,12.05
2023-01-10T23:17:40.786Z,14.18
2023-01-10T23:20:26.227Z,11.32
2023-01-10T23:23:11.656Z,9.48
2023-01-10T23:26:15.435Z,10.52
2023-01-10T23:29:00.615Z,10.73
2023-01-10T23:31:49.818Z,15.23
2023-01-10T23:34:35.095Z,13.07
2023-01-10T23:37:20.274Z,10.40
2023-01-10T23:40:06.377Z,11.77
2023-01-10T23:42:51.766Z,12.18
2023-01-10T23:45:37.636Z,11.50
2023-01-10T23:48:23.093Z,16.60
2023-01-10T23:51:08.591Z,12.00
2023-01-10T23:53:53.848Z,12.10
2023-01-10T23:56:39.187Z,11.77
2023-01-10T23:59:24.759Z,12.25
